createdAt,value
2019-05-10T00:00:27.067Z,4.20
2019-05-10T00:02:58.330Z,4.92
2019-05-10T00:05:32.923Z,4.53
2019-05-10T00:08:04.014Z,4.53
2019-05-10T00:10:33.214Z,4.83
2019-05-10T00:13:04.328Z,4.60
2019-05-10T00:15:33.916Z,4.20
2019-05-10T00:18:03.387Z,4.15
2019-05-10T00:20:32.824Z,4.15
2019-05-10T00:23:02.271Z,3.83
2019-05-10T00:25:31.716Z,4.40
2019-05-10T00:28:01.172Z,3.80
2019-05-10T00:30:30.618Z,3.85
2019-05-10T00:33:00.042Z,4.00
2019-05-10T00:35:29.509Z,3.85
2019-05-10T00:37:58.945Z,4.10
2019-05-10T00:40:28.381Z,4.05
2019-05-10T00:42:57.818Z,3.87
2019-05-10T00:45:27.283Z,3.67
2019-05-10T00:47:56.712Z,3.37
2019-05-10T00:50:26.179Z,3.90
2019-05-10T00:52:55.651Z,4.03
2019-05-10T00:55:25.160Z,3.90
2019-05-10T00:57:54.645Z,3.47
2019-05-10T01:00:24.651Z,3.30
2019-05-10T01:02:54.123Z,3.00
2019-05-10T01:05:23.587Z,3.30
2019-05-10T01:07:53.341Z,2.80
2019-05-10T01:10:22.792Z,2.83
2019-05-10T01:15:23.078Z,3.20
2019-05-10T01:17:52.535Z,2.47
2019-05-10T01:20:22.130Z,2.55
2019-05-10T01:22:51.807Z,2.30
2019-05-10T01:25:34.083Z,2.20
2019-05-10T01:27:52.419Z,2.75
2019-05-10T01:30:22.602Z,2.42
2019-05-10T01:32:52.122Z,2.27
2019-05-10T01:35:21.563Z,2.22
2019-05-10T01:37:51.035Z,2.40
2019-05-10T01:40:20.547Z,2.55
2019-05-10T01:42:50.008Z,2.30
2019-05-10T01:45:19.697Z,2.62
2019-05-10T01:47:49.139Z,2.80
2019-05-10T01:50:18.585Z,2.55
2019-05-10T01:52:48.049Z,2.70
2019-05-10T01:55:17.555Z,2.47
2019-05-10T01:57:46.984Z,2.10
2019-05-10T02:00:16.680Z,2.60
2019-05-10T02:02:46.125Z,2.62
2019-05-10T02:05:17.166Z,2.90
2019-05-10T02:07:46.632Z,2.85
2019-05-10T02:10:16.565Z,3.02
2019-05-10T02:12:46.018Z,3.08
2019-05-10T02:15:16.191Z,3.10
2019-05-10T02:17:45.722Z,2.77
2019-05-10T02:20:18.104Z,3.47
2019-05-10T02:22:47.558Z,3.30
2019-05-10T02:25:17.169Z,3.20
2019-05-10T02:27:46.636Z,3.90
2019-05-10T02:30:16.627Z,2.45
2019-05-10T02:32:46.070Z,3.33
2019-05-10T02:35:16.016Z,2.20
2019-05-10T02:37:45.459Z,2.55
2019-05-10T02:40:15.307Z,2.55
2019-05-10T02:42:44.769Z,2.80
2019-05-10T02:45:14.912Z,2.42
2019-05-10T02:47:44.368Z,2.20
2019-05-10T02:50:14.369Z,2.50
2019-05-10T02:52:43.802Z,2.65
2019-05-10T02:55:13.418Z,2.27
2019-05-10T02:57:43.685Z,2.08
2019-05-10T03:00:14.036Z,1.90
2019-05-10T03:02:44.333Z,2.37
2019-05-10T03:05:13.925Z,2.10
2019-05-10T03:07:45.110Z,2.00
2019-05-10T03:10:15.050Z,2.42
2019-05-10T03:12:44.495Z,2.27
2019-05-10T03:15:14.487Z,2.00
2019-05-10T03:17:44.024Z,2.27
2019-05-10T03:20:13.792Z,2.22
2019-05-10T03:22:44.814Z,2.12
2019-05-10T03:25:15.280Z,2.12
2019-05-10T03:27:45.081Z,2.00
2019-05-10T03:30:15.057Z,2.70
2019-05-10T03:32:44.501Z,2.98
2019-05-10T03:35:14.641Z,2.80
2019-05-10T03:37:44.512Z,2.58
2019-05-10T03:40:14.196Z,2.30
2019-05-10T03:42:43.691Z,2.98
2019-05-10T03:45:14.491Z,2.40
2019-05-10T03:47:43.921Z,2.40
2019-05-10T03:50:13.547Z,2.95
2019-05-10T03:52:42.974Z,2.65
2019-05-10T03:55:12.593Z,2.58
2019-05-10T03:57:42.040Z,2.85
2019-05-10T04:00:12.803Z,3.25
2019-05-10T04:02:42.275Z,2.45
2019-05-10T04:05:12.160Z,2.65
2019-05-10T04:07:41.596Z,2.60
2019-05-10T04:10:11.404Z,3.00
2019-05-10T04:12:40.830Z,2.98
2019-05-10T04:15:11.126Z,3.60
2019-05-10T04:17:40.701Z,3.05
2019-05-10T04:20:10.752Z,3.67
2019-05-10T04:22:40.202Z,3.40
2019-05-10T04:25:09.999Z,3.42
2019-05-10T04:27:39.584Z,2.90
2019-05-10T04:30:09.860Z,3.30
2019-05-10T04:32:39.297Z,2.95
2019-05-10T04:35:09.164Z,2.83
2019-05-10T04:37:38.633Z,2.95
2019-05-10T04:40:09.569Z,2.72
2019-05-10T04:42:39.078Z,2.45
2019-05-10T04:45:08.980Z,2.80
2019-05-10T04:47:38.432Z,2.85
2019-05-10T04:50:08.075Z,2.75
2019-05-10T04:52:37.501Z,2.50
2019-05-10T04:55:08.033Z,2.65
2019-05-10T04:57:49.808Z,2.77
2019-05-10T05:00:09.917Z,2.60
2019-05-10T05:02:39.549Z,2.58
2019-05-10T05:05:09.424Z,2.33
2019-05-10T05:07:38.854Z,2.72
2019-05-10T05:10:09.629Z,2.40
2019-05-10T05:12:39.084Z,2.67
2019-05-10T05:15:09.781Z,2.40
2019-05-10T05:17:39.247Z,2.25
2019-05-10T05:20:09.297Z,2.60
2019-05-10T05:22:38.749Z,2.58
2019-05-10T05:25:08.720Z,2.45
2019-05-10T05:27:38.156Z,2.27
2019-05-10T05:30:09.413Z,2.65
2019-05-10T05:32:44.394Z,2.22
2019-05-10T05:35:10.505Z,2.25
2019-05-10T05:37:39.945Z,2.72
2019-05-10T05:40:10.025Z,2.60
2019-05-10T05:42:39.457Z,2.40
2019-05-10T05:45:09.779Z,2.35
2019-05-10T05:47:42.238Z,2.30
2019-05-10T05:50:12.475Z,1.87
2019-05-10T05:52:41.949Z,2.20
2019-05-10T05:55:12.320Z,1.95
2019-05-10T05:57:41.778Z,2.27
2019-05-10T06:00:11.626Z,2.22
2019-05-10T06:02:44.950Z,2.80
2019-05-10T06:05:12.750Z,2.20
2019-05-10T06:07:42.182Z,2.10
2019-05-10T06:10:16.908Z,2.42
2019-05-10T06:12:44.641Z,2.00
2019-05-10T06:15:14.400Z,2.42
2019-05-10T06:17:43.892Z,2.72
2019-05-10T06:20:14.317Z,2.20
2019-05-10T06:23:05.141Z,2.08
2019-05-10T06:25:15.164Z,2.30
2019-05-10T06:27:44.595Z,2.92
2019-05-10T06:30:14.199Z,3.02
2019-05-10T06:32:43.672Z,3.08
2019-05-10T06:35:14.034Z,2.50
2019-05-10T06:37:44.672Z,2.58
2019-05-10T06:40:14.657Z,2.72
2019-05-10T06:42:44.119Z,2.92
2019-05-10T06:45:16.240Z,2.85
2019-05-10T06:47:47.667Z,2.72
2019-05-10T06:50:17.375Z,2.70
2019-05-10T06:52:46.877Z,2.83
2019-05-10T06:55:16.960Z,3.25
2019-05-10T06:57:50.585Z,2.25
2019-05-10T07:00:17.863Z,2.47
2019-05-10T07:02:47.327Z,2.90
2019-05-10T07:05:17.011Z,3.37
2019-05-10T07:07:46.454Z,2.55
2019-05-10T07:10:19.374Z,2.65
2019-05-10T07:12:47.309Z,2.80
2019-05-10T07:15:18.293Z,3.47
2019-05-10T07:20:29.375Z,2.70
2019-05-10T07:22:59.898Z,2.45
2019-05-10T07:25:26.918Z,2.55
2019-05-10T07:27:56.355Z,2.60
2019-05-10T07:30:30.698Z,2.35
2019-05-10T07:33:02.014Z,2.02
2019-05-10T07:35:36.844Z,2.15
2019-05-10T07:38:02.689Z,2.15
2019-05-10T07:40:32.132Z,2.10
2019-05-10T07:43:01.598Z,1.80
2019-05-10T07:45:31.044Z,2.00
2019-05-10T07:48:02.518Z,2.08
2019-05-10T07:50:31.643Z,2.15
2019-05-10T07:53:01.095Z,1.60
2019-05-10T07:55:30.535Z,2.35
2019-05-10T07:58:04.941Z,2.25
2019-05-10T08:00:31.406Z,2.10
2019-05-10T08:03:09.815Z,1.85
2019-05-10T08:05:32.024Z,2.00
2019-05-10T08:08:01.460Z,1.98
2019-05-10T08:10:30.922Z,1.90
2019-05-10T08:13:03.500Z,2.08
2019-05-10T08:15:34.766Z,2.05
2019-05-10T08:18:02.755Z,1.90
2019-05-10T08:20:46.625Z,1.77
2019-05-10T08:23:03.404Z,2.00
2019-05-10T08:25:36.356Z,1.90
2019-05-10T08:28:05.492Z,1.72
2019-05-10T08:30:42.787Z,1.85
2019-05-10T08:33:14.037Z,1.35
2019-05-10T08:35:45.522Z,1.47
2019-05-10T08:38:13.194Z,2.83
2019-05-10T08:40:43.058Z,1.62
2019-05-10T08:43:16.480Z,1.45
2019-05-10T08:45:48.987Z,1.82
2019-05-10T08:48:15.119Z,1.50
2019-05-10T08:50:53.326Z,1.30
2019-05-10T08:53:16.659Z,1.55
2019-05-10T08:55:46.395Z,1.70
2019-05-10T08:58:24.473Z,1.90
2019-05-10T09:00:55.132Z,1.80
2019-05-10T09:03:18.689Z,2.00
2019-05-10T09:05:48.342Z,1.80
2019-05-10T09:08:19.902Z,2.00
2019-05-10T09:10:48.947Z,1.57
2019-05-10T09:13:18.414Z,1.52
2019-05-10T09:15:51.725Z,1.70
2019-05-10T09:18:19.022Z,1.57
2019-05-10T09:20:48.486Z,1.70
2019-05-10T09:23:20.014Z,1.47
2019-05-10T09:25:49.098Z,1.67
2019-05-10T09:28:18.544Z,1.70
2019-05-10T09:30:59.857Z,1.82
2019-05-10T09:33:19.169Z,1.60
2019-05-10T09:35:52.323Z,1.65
2019-05-10T09:38:21.957Z,1.60
2019-05-10T09:40:56.085Z,2.00
2019-05-10T09:43:24.295Z,1.82
2019-05-10T09:45:53.402Z,1.85
2019-05-10T09:48:23.019Z,2.00
2019-05-10T09:50:55.906Z,1.60
2019-05-10T09:53:27.486Z,1.90
2019-05-10T09:56:00.145Z,2.00
2019-05-10T09:58:28.227Z,1.85
2019-05-10T10:01:12.833Z,2.35
2019-05-10T10:03:30.108Z,1.62
2019-05-10T10:06:05.548Z,1.77
2019-05-10T10:08:30.902Z,2.00
2019-05-10T10:11:10.453Z,1.67
2019-05-10T10:13:43.124Z,1.92
2019-05-10T10:16:03.915Z,2.27
2019-05-10T10:18:33.866Z,1.85
2019-05-10T10:21:03.336Z,1.92
2019-05-10T10:23:34.793Z,1.90
2019-05-10T10:26:03.960Z,1.90
2019-05-10T10:28:36.330Z,2.52
2019-05-10T10:31:05.366Z,2.25
2019-05-10T10:33:34.993Z,2.45
2019-05-10T10:36:07.416Z,3.87
2019-05-10T10:38:37.067Z,3.10
2019-05-10T10:41:08.222Z,2.92
2019-05-10T10:43:37.797Z,2.20
2019-05-10T10:46:11.906Z,2.10
2019-05-10T10:48:38.550Z,2.95
2019-05-10T10:51:08.217Z,2.75
2019-05-10T10:53:37.651Z,1.98
2019-05-10T10:56:07.829Z,2.65
2019-05-10T10:58:37.389Z,2.12
2019-05-10T11:01:19.533Z,2.17
2019-05-10T11:03:38.870Z,2.02
2019-05-10T11:06:08.379Z,1.87
2019-05-10T11:08:37.805Z,1.90
2019-05-10T11:11:07.254Z,1.57
2019-05-10T11:13:43.935Z,1.55
2019-05-10T11:16:11.116Z,1.80
2019-05-10T11:18:41.641Z,3.00
2019-05-10T11:21:11.270Z,2.15
2019-05-10T11:23:41.995Z,1.90
2019-05-10T11:26:11.740Z,1.90
2019-05-10T11:28:44.018Z,1.60
2019-05-10T11:31:12.383Z,1.72
2019-05-10T11:33:42.086Z,2.00
2019-05-10T11:36:13.052Z,1.65
2019-05-10T11:38:47.065Z,2.30
2019-05-10T11:41:20.945Z,2.25
2019-05-10T11:43:44.853Z,1.92
2019-05-10T11:46:14.306Z,1.80
2019-05-10T11:48:43.780Z,1.57
2019-05-10T11:51:17.280Z,2.10
2019-05-10T11:53:48.979Z,1.98
2019-05-10T11:56:15.656Z,2.02
2019-05-10T11:58:52.468Z,1.60
2019-05-10T12:01:19.282Z,2.27
2019-05-10T12:03:47.659Z,3.40
2019-05-10T12:06:17.110Z,1.72
2019-05-10T12:08:46.538Z,1.70
2019-05-10T12:13:47.151Z,1.67
2019-05-10T12:16:17.144Z,1.87
2019-05-10T12:19:02.338Z,2.10
2019-05-10T12:21:17.904Z,1.60
2019-05-10T12:26:12.077Z,1.47
2019-05-10T12:26:18.917Z,1.80
2019-05-10T12:28:51.085Z,2.58
2019-05-10T12:31:23.129Z,1.77
2019-05-10T12:33:54.219Z,1.65
2019-05-10T12:36:27.485Z,1.82
2019-05-10T12:38:56.186Z,1.90
2019-05-10T12:41:26.036Z,1.87
2019-05-10T12:44:02.806Z,2.02
2019-05-10T12:46:26.699Z,2.10
2019-05-10T12:48:56.147Z,2.35
2019-05-10T12:51:25.616Z,1.67
2019-05-10T12:53:55.058Z,2.00
2019-05-10T12:56:24.517Z,1.42
2019-05-10T12:58:57.456Z,1.80
2019-05-10T13:01:31.085Z,1.52
2019-05-10T13:03:56.351Z,1.50
2019-05-10T13:06:25.808Z,2.05
2019-05-10T13:08:55.340Z,1.50
2019-05-10T13:11:26.987Z,2.17
2019-05-10T13:14:01.144Z,1.65
2019-05-10T13:16:27.192Z,1.85
2019-05-10T13:18:56.653Z,1.27
2019-05-10T13:21:30.502Z,1.62
2019-05-10T13:24:00.865Z,1.40
2019-05-10T13:26:30.303Z,3.83
2019-05-10T13:29:02.210Z,2.45
2019-05-10T13:31:31.003Z,1.77
2019-05-10T13:34:00.402Z,1.50
2019-05-10T13:36:30.588Z,1.90
2019-05-10T13:39:01.047Z,1.77
2019-05-10T13:41:30.579Z,1.62
2019-05-10T13:44:04.937Z,1.75
2019-05-10T13:46:31.175Z,1.80
2019-05-10T13:49:00.644Z,1.77
2019-05-10T13:51:30.102Z,2.25
2019-05-10T13:54:00.921Z,2.25
2019-05-10T13:56:30.709Z,1.65
2019-05-10T13:59:13.552Z,1.50
2019-05-10T14:01:31.335Z,1.75
2019-05-10T14:04:03.403Z,1.40
2019-05-10T14:06:31.974Z,1.72
2019-05-10T14:09:01.399Z,1.70
2019-05-10T14:11:34.299Z,1.65
2019-05-10T14:14:02.048Z,1.57
2019-05-10T14:16:31.505Z,2.02
2019-05-10T14:19:00.943Z,1.90
2019-05-10T14:21:30.372Z,1.30
2019-05-10T14:23:59.841Z,1.57
2019-05-10T14:26:29.273Z,1.57
2019-05-10T14:28:58.732Z,1.30
2019-05-10T14:31:28.166Z,1.80
2019-05-10T14:34:14.488Z,1.60
2019-05-10T14:36:34.134Z,1.60
2019-05-10T14:38:59.977Z,2.00
2019-05-10T14:41:29.414Z,1.40
2019-05-10T14:43:58.859Z,1.77
2019-05-10T14:46:28.357Z,1.90
2019-05-10T14:49:08.834Z,1.40
2019-05-10T14:51:44.132Z,1.70
2019-05-10T14:54:06.810Z,1.40
2019-05-10T14:56:31.353Z,1.90
2019-05-10T14:59:00.805Z,1.75
2019-05-10T15:01:30.290Z,1.50
2019-05-10T15:03:59.746Z,1.40
2019-05-10T15:06:30.708Z,1.57
2019-05-10T15:09:00.352Z,1.82
2019-05-10T15:11:31.606Z,1.67
2019-05-10T15:14:00.987Z,1.65
2019-05-10T15:16:30.975Z,2.15
2019-05-10T15:19:00.560Z,2.83
2019-05-10T15:21:30.098Z,1.70
2019-05-10T15:24:00.952Z,1.70
2019-05-10T15:26:30.724Z,2.55
2019-05-10T15:29:00.244Z,1.57
2019-05-10T15:31:30.894Z,1.60
2019-05-10T15:34:04.782Z,2.10
2019-05-10T15:36:31.824Z,1.77
2019-05-10T15:39:01.297Z,1.30
2019-05-10T15:41:30.764Z,1.35
2019-05-10T15:44:00.198Z,1.60
2019-05-10T15:46:38.796Z,1.70
2019-05-10T15:49:00.873Z,1.75
2019-05-10T15:51:36.353Z,1.60
2019-05-10T15:54:04.906Z,1.60
2019-05-10T15:56:35.498Z,1.85
2019-05-10T15:59:03.849Z,1.65
2019-05-10T16:01:33.321Z,1.67
2019-05-10T16:04:03.584Z,2.00
2019-05-10T16:06:37.760Z,3.30
2019-05-10T16:09:16.824Z,2.05
2019-05-10T16:11:37.016Z,1.80
2019-05-10T16:14:07.103Z,1.72
2019-05-10T16:16:39.448Z,2.05
2019-05-10T16:19:12.940Z,1.75
2019-05-10T16:21:38.932Z,1.45
2019-05-10T16:24:08.383Z,1.87
2019-05-10T16:26:37.842Z,1.98
2019-05-10T16:29:07.346Z,1.40
2019-05-10T16:31:36.785Z,1.35
2019-05-10T16:34:06.491Z,1.50
2019-05-10T16:39:15.773Z,1.50
2019-05-10T16:41:45.248Z,1.98
2019-05-10T16:44:14.707Z,1.60
2019-05-10T16:46:44.141Z,1.77
2019-05-10T16:49:15.524Z,1.47
2019-05-10T16:51:47.866Z,1.62
2019-05-10T16:54:24.204Z,1.77
2019-05-10T16:56:51.637Z,1.47
2019-05-10T16:59:18.315Z,1.72
2019-05-10T17:01:47.842Z,1.67
2019-05-10T17:04:17.288Z,1.70
2019-05-10T17:06:46.738Z,1.85
2019-05-10T17:09:18.595Z,1.45
2019-05-10T17:11:48.625Z,1.72
2019-05-10T17:14:19.657Z,1.55
2019-05-10T17:16:56.561Z,1.80
2019-05-10T17:19:20.453Z,2.10
2019-05-10T17:21:49.918Z,1.95
2019-05-10T17:24:23.989Z,1.47
2019-05-10T17:26:50.589Z,1.60
2019-05-10T17:29:20.052Z,1.50
2019-05-10T17:31:49.495Z,1.25
2019-05-10T17:34:27.592Z,1.42
2019-05-10T17:36:51.832Z,1.82
2019-05-10T17:39:26.248Z,1.72
2019-05-10T17:41:52.480Z,1.62
2019-05-10T17:44:23.280Z,1.42
2019-05-10T17:46:55.272Z,1.60
2019-05-10T17:49:25.904Z,1.50
2019-05-10T17:51:55.388Z,1.57
2019-05-10T17:54:24.840Z,1.40
2019-05-10T17:56:54.305Z,1.90
2019-05-10T17:59:23.752Z,1.30
2019-05-10T18:01:53.230Z,1.80
2019-05-10T18:04:22.752Z,2.02
2019-05-10T18:06:52.232Z,1.75
2019-05-10T18:09:21.668Z,1.70
2019-05-10T18:11:51.140Z,1.92
2019-05-10T18:14:20.607Z,1.60
2019-05-10T18:16:50.268Z,1.52
2019-05-10T18:19:24.560Z,1.70
2019-05-10T18:21:55.042Z,1.72
2019-05-10T18:24:22.210Z,1.87
2019-05-10T18:26:51.660Z,1.90
2019-05-10T18:29:21.114Z,1.77
2019-05-10T18:31:55.922Z,2.25
2019-05-10T18:34:26.622Z,2.55
2019-05-10T18:36:52.918Z,1.70
2019-05-10T18:39:22.371Z,1.65
2019-05-10T18:41:51.813Z,2.10
2019-05-10T18:44:21.252Z,2.12
2019-05-10T18:46:50.730Z,2.02
2019-05-10T18:49:20.201Z,1.95
2019-05-10T18:51:49.644Z,2.30
2019-05-10T18:54:19.097Z,1.98
2019-05-10T18:56:48.561Z,2.05
2019-05-10T18:59:18.016Z,1.92
2019-05-10T19:01:47.494Z,2.00
2019-05-10T19:04:16.940Z,1.82
2019-05-10T19:06:50.121Z,2.33
2019-05-10T19:09:17.558Z,2.25
2019-05-10T19:11:47.066Z,2.50
2019-05-10T19:14:16.917Z,2.05
2019-05-10T19:16:46.422Z,2.27
2019-05-10T19:19:15.890Z,2.20
2019-05-10T19:21:45.349Z,2.20
2019-05-10T19:24:14.815Z,2.50
2019-05-10T19:26:44.271Z,2.33
2019-05-10T19:29:13.718Z,2.37
2019-05-10T19:31:43.156Z,2.72
2019-05-10T19:34:15.452Z,2.17
2019-05-10T19:36:43.784Z,2.20
2019-05-10T19:39:13.223Z,2.15
2019-05-10T19:41:42.669Z,2.52
2019-05-10T19:44:12.131Z,2.70
2019-05-10T19:46:43.120Z,2.62
2019-05-10T19:49:13.297Z,2.27
2019-05-10T19:51:48.639Z,2.65
2019-05-10T19:54:19.463Z,2.70
2019-05-10T19:56:46.091Z,2.80
2019-05-10T19:59:15.543Z,2.65
2019-05-10T20:01:45.619Z,2.52
2019-05-10T20:04:15.104Z,2.98
2019-05-10T20:06:44.559Z,3.10
2019-05-10T20:09:14.036Z,2.72
2019-05-10T20:11:43.516Z,2.60
2019-05-10T20:14:13.112Z,2.60
2019-05-10T20:16:52.244Z,2.85
2019-05-10T20:19:13.730Z,3.10
2019-05-10T20:21:43.165Z,3.27
2019-05-10T20:24:12.604Z,3.22
2019-05-10T20:26:42.068Z,2.80
2019-05-10T20:29:11.525Z,2.80
2019-05-10T20:31:41.009Z,2.90
2019-05-10T20:34:10.504Z,3.08
2019-05-10T20:36:39.974Z,3.58
2019-05-10T20:39:09.580Z,3.15
2019-05-10T20:41:39.065Z,3.00
2019-05-10T20:44:08.500Z,2.55
2019-05-10T20:46:37.954Z,3.00
2019-05-10T20:49:07.510Z,2.92
2019-05-10T20:51:36.966Z,3.10
2019-05-10T20:54:06.413Z,2.98
2019-05-10T20:56:35.871Z,3.00
2019-05-10T20:59:05.323Z,2.72
2019-05-10T21:01:34.760Z,3.00
2019-05-10T21:04:04.228Z,2.83
2019-05-10T21:06:33.687Z,2.72
2019-05-10T21:09:03.705Z,2.60
2019-05-10T21:11:33.162Z,3.42
2019-05-10T21:14:02.617Z,2.80
2019-05-10T21:16:32.153Z,3.62
2019-05-10T21:19:01.603Z,2.60
2019-05-10T21:21:31.053Z,2.85
2019-05-10T21:24:00.484Z,2.67
2019-05-10T21:26:29.916Z,2.70
2019-05-10T21:28:59.366Z,2.50
2019-05-10T21:31:28.852Z,3.02
2019-05-10T21:34:09.126Z,3.58
2019-05-10T21:36:29.463Z,2.62
2019-05-10T21:38:58.906Z,3.27
2019-05-10T21:41:28.368Z,3.08
2019-05-10T21:43:57.796Z,3.10
2019-05-10T21:46:27.270Z,3.12
2019-05-10T21:48:56.706Z,2.83
2019-05-10T21:51:26.137Z,3.20
2019-05-10T21:53:55.578Z,3.20
2019-05-10T21:56:25.041Z,3.02
2019-05-10T21:58:54.490Z,3.25
2019-05-10T22:01:24.016Z,3.50
2019-05-10T22:03:53.461Z,3.75
2019-05-10T22:06:22.924Z,4.60
2019-05-10T22:08:52.392Z,4.10
2019-05-10T22:11:21.850Z,4.10
2019-05-10T22:13:51.313Z,3.83
2019-05-10T22:16:20.767Z,3.50
2019-05-10T22:18:52.009Z,3.80
2019-05-10T22:21:21.443Z,3.60
2019-05-10T22:23:50.896Z,3.52
2019-05-10T22:26:20.349Z,3.95
2019-05-10T22:28:49.796Z,3.22
2019-05-10T22:31:19.263Z,3.62
2019-05-10T22:33:48.711Z,3.67
2019-05-10T22:36:18.157Z,3.35
2019-05-10T22:38:47.571Z,3.60
2019-05-10T22:41:17.037Z,3.62
2019-05-10T22:43:46.463Z,3.80
2019-05-10T22:46:15.925Z,3.30
2019-05-10T22:48:45.369Z,3.80
2019-05-10T22:51:14.814Z,3.70
2019-05-10T22:53:44.275Z,3.70
2019-05-10T22:56:13.721Z,3.70
2019-05-10T22:58:43.148Z,3.95
2019-05-10T23:01:12.610Z,3.40
2019-05-10T23:03:42.060Z,4.45
2019-05-10T23:06:12.062Z,4.03
2019-05-10T23:08:41.478Z,3.90
2019-05-10T23:11:10.907Z,3.33
2019-05-10T23:13:40.379Z,4.05
2019-05-10T23:16:09.835Z,4.10
2019-05-10T23:18:39.267Z,4.15
2019-05-10T23:21:08.690Z,4.03
2019-05-10T23:23:38.139Z,4.00
2019-05-10T23:26:07.581Z,3.98
2019-05-10T23:28:37.025Z,3.52
2019-05-10T23:31:06.501Z,4.53
2019-05-10T23:33:35.978Z,5.50
2019-05-10T23:36:05.413Z,5.95
2019-05-10T23:38:34.845Z,5.25
2019-05-10T23:41:04.404Z,5.17
2019-05-10T23:43:33.825Z,4.10
2019-05-10T23:46:03.293Z,4.33
2019-05-10T23:48:33.020Z,5.12
2019-05-10T23:51:02.480Z,4.08
2019-05-10T23:53:31.935Z,4.30
2019-05-10T23:56:01.400Z,4.50
2019-05-10T23:58:30.835Z,4.30
